Latest Weather Observations for PORTABLE WN01 (Water NSW)

IDN60801

Issued at 11:43 pm EDT Thursday 28 January 2021 (issued every 10 minutes, with the page automatically refreshed every 10 minutes)

About weather observations | Map of weather stations | Latest weather observations for NSW | Other Formats
Station Details ID: 250116 Name: PORTABLE NSW WN01 (WATER NSW) Lat: -34.33 Lon: 150.61 Height: 382.0 m

Portable automatic weather stations (PAWS) are operated by other organisations, such as Fire and Emergency Services, and are included here by agreement. Portable stations may be deployed to a location for a short period and their location may be subject to change without notice. Wind observations from these stations are provided from heights of either three (3) or ten (10) metres above ground level (AGL).

Data from the previous 72 hours. | See also: Recent months for locations in New South Wales
Date/Time
EDT
Temp
°C
App
Temp
°C
Dew
Point
°C
Rel
Hum
%
Delta-T
°C
Wind Press
QNH
hPa
Press
MSL
hPa
Rain since
9am
mm
Dir  Spd
km/h
Gust
km/h
Spd
kts
Gust
kts
28/11:30pm 19.1 19.0 13.4 69 3.3 SE 6 7 3 4 - - 4.6
28/11:20pm 19.4 19.4 13.5 68 3.4 SSE 6 6 3 3 - - 4.6
28/11:10pm 19.7 19.8 14.0 69 3.3 SE 6 7 3 4 - - 4.6
28/11:00pm 20.2 20.3 13.8 66 3.7 SE 6 9 3 5 - - 4.6
28/10:50pm 20.7 21.0 14.4 67 3.7 SE 6 7 3 4 - - 4.6
28/10:40pm 20.3 20.7 13.7 66 3.9 ESE 4 6 2 3 - - 4.6
28/10:30pm 19.9 20.4 14.0 69 3.5 SE 4 7 2 4 - - 4.6
28/10:20pm 20.0 20.0 13.5 66 3.8 SE 6 7 3 4 - - 4.6
28/10:10pm 20.0 20.4 13.6 66 3.7 SE 4 6 2 3 - - 4.6
28/10:00pm 19.2 19.4 13.1 68 3.5 SE 4 7 2 4 - - 4.6
28/09:50pm 18.7 18.6 13.4 71 3.1 SE 6 7 3 4 - - 4.6
28/09:40pm 18.8 19.2 13.7 72 3.0 SSE 4 6 2 3 - - 4.6
28/09:30pm 18.7 18.9 14.3 75 2.6 SE 6 9 3 5 - - 4.6
28/09:20pm 18.5 18.7 14.3 76 2.5 SE 6 9 3 5 - - 4.6
28/09:10pm 18.7 19.3 14.3 75 2.6 SE 4 7 2 4 - - 4.6
28/09:00pm 18.6 19.4 14.8 78 2.2 SE 4 6 2 3 - - 4.6
28/08:50pm 18.4 18.8 14.7 79 2.2 SE 6 7 3 4 - - 4.6
28/08:40pm 18.3 19.2 15.0 81 2.0 SSE 4 6 2 3 - - 4.6
28/08:30pm 18.1 19.0 15.0 82 1.8 SE 4 7 2 4 - - 4.6
28/08:20pm 18.0 18.6 15.2 84 1.7 SE 6 7 3 4 - - 4.6
28/08:10pm 18.3 18.9 15.2 82 1.8 ESE 6 7 3 4 - - 4.6
28/08:00pm 18.3 19.3 15.3 83 1.8 SE 4 7 2 4 - - 4.6
28/07:50pm 18.3 19.2 15.0 81 2.0 SE 4 7 2 4 - - 4.6
28/07:40pm 18.2 19.2 15.3 83 1.7 SE 4 6 2 3 - - 4.6
28/07:30pm 18.0 18.9 15.2 84 1.7 SSE 4 6 2 3 - - 4.6
28/07:20pm 17.6 18.5 15.1 85 1.5 SSE 4 7 2 4 - - 4.6
28/07:10pm 17.4 18.4 15.3 87 1.2 SSE 4 6 2 3 - - 4.6
28/07:00pm 17.3 18.6 15.2 87 1.2 SE 2 6 1 3 - - 4.6
28/06:50pm 17.2 18.1 15.1 87 1.2 SE 4 4 2 2 - - 4.6
28/06:40pm 17.2 18.4 15.0 87 1.3 SE 2 4 1 2 - - 4.6
28/06:30pm 17.2 18.0 14.8 86 1.4 SSE 4 6 2 3 - - 4.6
28/06:20pm 17.2 18.1 15.0 87 1.3 SSE 4 4 2 2 - - 4.6
28/06:10pm 17.0 17.8 14.9 87 1.2 SE 4 6 2 3 - - 4.6
28/06:00pm 16.9 17.7 14.9 88 1.2 SSE 4 6 2 3 - - 4.6
28/05:50pm 16.9 17.8 15.0 88 1.1 SE 4 6 2 3 - - 4.6
28/05:40pm 16.9 17.8 15.2 90 1.0 SE 4 6 2 3 - - 4.6
28/05:30pm 16.8 18.1 15.1 90 1.0 SE 2 4 1 2 - - 4.6
28/05:20pm 16.8 17.8 15.4 91 0.8 SE 4 6 2 3 - - 4.6
28/05:10pm 16.7 17.6 15.2 91 0.9 SSE 4 6 2 3 - - 4.4
28/05:00pm 16.7 18.1 15.5 93 0.7 SSE 2 4 1 2 - - 4.4
28/04:50pm 16.7 18.1 15.4 92 0.8 SE 2 6 1 3 - - 4.4
28/04:40pm 16.7 18.1 15.4 92 0.8 SSE 2 6 1 3 - - 4.4
28/04:30pm 16.6 18.0 15.4 93 0.7 SE 2 4 1 2 - - 4.4
28/04:20pm 16.6 18.0 15.4 93 0.7 ESE 2 4 1 2 - - 4.4
28/04:10pm 16.6 18.0 15.3 92 0.8 SSE 2 4 1 2 - - 4.4
28/04:00pm 16.5 17.9 15.3 93 0.7 S 2 6 1 3 - - 4.4
28/03:50pm 16.5 17.9 15.4 93 0.7 SSE 2 4 1 2 - - 4.4
28/03:40pm 16.5 17.9 15.5 94 0.6 SSE 2 4 1 2 - - 4.4
28/03:30pm 16.6 18.1 15.6 94 0.6 SSE 2 6 1 3 - - 4.4
28/03:20pm 16.6 18.1 15.7 94 0.5 SE 2 4 1 2 - - 4.4
28/03:10pm 16.6 17.7 15.7 94 0.5 SE 4 4 2 2 - - 4.4
28/03:00pm 16.6 18.2 15.9 96 0.4 SE 2 4 1 2 - - 4.4
28/02:50pm 16.6 17.8 15.9 96 0.4 SSE 4 6 2 3 - - 4.4
28/02:40pm 16.6 17.8 16.0 96 0.4 SE 4 7 2 4 - - 4.4
28/02:30pm 16.6 17.8 16.0 96 0.4 SE 4 7 2 4 - - 4.4
28/02:20pm 16.5 17.7 15.9 96 0.4 SE 4 6 2 3 - - 4.4
28/02:10pm 16.6 17.8 16.0 96 0.4 SE 4 6 2 3 - - 4.4
28/02:00pm 16.6 17.8 16.0 96 0.4 SE 4 6 2 3 - - 4.4
28/01:50pm 16.6 18.2 16.0 96 0.4 SSE 2 4 1 2 - - 4.2
28/01:40pm 16.6 18.2 16.0 96 0.4 SSE 2 4 1 2 - - 4.2
28/01:30pm 16.6 18.2 15.9 96 0.4 S 2 4 1 2 - - 4.0
28/01:20pm 16.5 18.1 15.9 96 0.4 SSE 2 4 1 2 - - 3.8
28/01:10pm 16.5 18.0 15.8 96 0.4 SE 2 4 1 2 - - 3.8
28/01:00pm 16.5 18.0 15.8 96 0.4 SSE 2 6 1 3 - - 3.8
28/12:50pm 16.5 18.1 15.9 96 0.4 SE 2 4 1 2 - - 3.8
28/12:40pm 16.7 17.9 16.0 96 0.4 SSE 4 6 2 3 - - 3.6
28/12:30pm 16.9 18.3 16.4 97 0.3 SSE 4 7 2 4 - - 3.6
28/12:20pm 17.0 18.4 16.5 97 0.3 ESE 4 7 2 4 - - 3.0
28/12:10pm 17.0 18.5 16.6 97 0.2 ESE 4 7 2 4 - - 2.6
28/12:00pm 17.0 18.4 16.5 97 0.3 ESE 4 6 2 3 - - 2.2
28/11:50am 17.0 18.4 16.5 97 0.3 E 4 6 2 3 - - 2.0
28/11:40am 16.9 18.7 16.5 97 0.2 ESE 2 4 1 2 - - 2.0
28/11:30am 16.9 18.7 16.5 97 0.2 ENE 2 2 1 1 - - 1.6
28/11:20am 16.8 18.6 16.4 97 0.2 - 2 4 1 2 - - 1.6
28/11:10am 16.8 18.9 16.3 97 0.3 CALM 0 0 0 0 - - 1.4
28/11:00am 16.8 18.9 16.3 97 0.3 CALM 0 2 0 1 - - 1.2
28/10:50am 16.8 18.5 16.3 97 0.3 S 2 4 1 2 - - 1.0
28/10:40am 16.8 18.9 16.2 96 0.4 CALM 0 2 0 1 - - 0.8
28/10:30am 16.8 18.5 16.2 96 0.4 SE 2 4 1 2 - - 0.4
28/10:20am 16.8 18.5 16.2 96 0.4 SSE 2 4 1 2 - - 0.4
28/10:10am 16.9 18.3 16.3 96 0.4 SSE 4 6 2 3 - - 0.4
28/10:00am 17.0 19.2 16.5 97 0.3 CALM 0 2 0 1 - - 3.2
28/09:50am 16.9 19.0 16.3 96 0.4 CALM 0 2 0 1 - - 2.8
28/09:40am 16.9 18.6 16.3 96 0.4 SE 2 2 1 1 - - 2.8
28/09:30am 16.9 18.6 16.3 96 0.4 SSE 2 2 1 1 - - 2.8
28/09:20am 16.8 18.1 16.2 96 0.4 SSE 4 4 2 2 - - 2.8
28/09:10am 16.8 18.5 16.2 96 0.4 SE 2 4 1 2 - - 2.8
28/09:00am 16.8 18.1 16.1 96 0.4 SSE 4 6 2 3 - - 2.8
28/08:50am 16.8 18.5 16.1 96 0.4 SE 2 6 1 3 - - 2.8
28/08:40am 16.8 18.5 16.1 96 0.4 SSE 2 6 1 3 - - 2.8
28/08:30am 16.7 18.4 16.1 96 0.4 SE 2 4 1 2 - - 2.8
28/08:20am 16.6 18.2 16.0 96 0.4 SSE 2 4 1 2 - - 2.6
28/08:10am 16.6 17.8 15.9 96 0.4 SSE 4 6 2 3 - - 2.6
28/08:00am 16.6 17.8 15.9 96 0.4 SE 4 6 2 3 - - 2.6
28/07:50am 16.5 17.7 15.8 96 0.4 S 4 6 2 3 - - 2.6
28/07:40am 16.4 17.5 15.7 96 0.4 SSE 4 4 2 2 - - 2.6
28/07:30am 16.4 17.5 15.6 95 0.5 S 4 7 2 4 - - 2.4
28/07:20am 16.4 17.5 15.7 96 0.4 S 4 7 2 4 - - 2.4
28/07:10am 16.5 17.7 15.8 96 0.4 S 4 4 2 2 - - 2.4
28/07:00am 16.5 17.7 15.8 96 0.4 S 4 6 2 3 - - 2.4
28/06:50am 16.5 17.7 15.9 96 0.4 SSE 4 4 2 2 - - 2.4
28/06:40am 16.6 17.8 15.8 95 0.5 SSE 4 6 2 3 - - 2.2
28/06:30am 16.7 17.9 15.9 95 0.5 S 4 6 2 3 - - 2.0
28/06:20am 16.8 18.4 15.9 94 0.5 S 2 6 1 3 - - 2.0
28/06:10am 16.9 18.5 16.0 94 0.5 S 2 4 1 2 - - 1.8
28/06:00am 17.0 18.6 16.0 94 0.6 SSE 2 4 1 2 - - 1.8
28/05:50am 17.0 18.2 15.8 93 0.7 SSE 4 6 2 3 - - 1.8
28/05:40am 17.1 18.7 16.0 93 0.7 SSE 2 4 1 2 - - 1.6
28/05:30am 17.1 18.7 16.0 93 0.7 SSE 2 4 1 2 - - 1.6
28/05:20am 17.1 18.6 15.8 92 0.8 S 2 6 1 3 - - 1.4
28/05:10am 17.1 18.2 15.6 91 0.9 S 4 6 2 3 - - 1.4
28/05:00am 17.2 18.7 15.8 91 0.8 SSW 2 4 1 2 - - 1.4
28/04:50am 17.2 18.7 15.7 91 0.9 S 2 4 1 2 - - 1.4
28/04:40am 17.4 18.5 15.6 89 1.1 S 4 6 2 3 - - 1.4
28/04:30am 17.5 19.1 15.9 90 1.0 SE 2 4 1 2 - - 1.2
28/04:20am 17.5 19.1 15.9 90 1.0 S 2 6 1 3 - - 1.2
28/04:10am 17.5 18.7 15.9 90 1.0 S 4 4 2 2 - - 1.2
28/04:00am 17.6 18.8 16.0 90 1.0 SSE 4 4 2 2 - - 1.2
28/03:50am 17.7 19.4 16.1 90 1.0 SSE 2 6 1 3 - - 1.2
28/03:40am 17.8 19.0 16.0 89 1.1 SSE 4 6 2 3 - - 1.2
28/03:30am 18.0 19.3 16.2 89 1.1 S 4 7 2 4 - - 1.2
28/03:20am 18.3 19.4 15.5 84 1.7 S 4 9 2 5 - - 1.0
28/03:10am 18.6 19.0 15.3 81 2.0 S 7 9 4 5 - - 0.2
28/03:00am 19.0 19.9 15.0 77 2.4 S 4 6 2 3 - - 0.2
28/02:50am 19.3 20.2 15.0 76 2.6 SSE 4 9 2 5 - - 0.2
28/02:40am 19.5 20.0 15.1 76 2.6 SSE 6 9 3 5 - - 0.2
28/02:30am 19.8 20.7 15.1 74 2.8 SE 4 6 2 3 - - 0.2
28/02:20am 19.9 20.8 15.2 74 2.8 S 4 6 2 3 - - 0.2
28/02:10am 20.0 20.9 15.1 73 2.9 SSE 4 6 2 3 - - 0.2
28/02:00am 20.1 21.0 15.1 73 3.0 SSE 4 6 2 3 - - 0.2
28/01:50am 20.2 20.7 15.1 72 3.1 SSE 6 7 3 4 - - 0.2
28/01:40am 20.4 21.3 15.1 71 3.2 SE 4 6 2 3 - - 0.2
28/01:30am 20.4 21.0 15.2 72 3.1 SSE 6 9 3 5 - - 0.2
28/01:20am 20.4 21.5 15.5 73 3.0 SSE 4 7 2 4 - - 0.2
28/01:10am 20.6 21.2 15.4 72 3.1 SSE 6 7 3 4 - - 0.2
28/01:00am 20.6 21.0 15.3 71 3.2 SSE 7 11 4 6 - - 0.2
28/12:50am 20.8 21.5 15.5 71 3.2 SE 6 9 3 5 - - 0.2
28/12:40am 21.4 22.1 15.7 70 3.5 SSE 6 9 3 5 - - 0.2
28/12:30am 21.4 22.1 15.7 70 3.5 S 6 7 3 4 - - 0.2
28/12:20am 20.9 21.7 15.9 73 3.0 SSE 6 7 3 4 - - 0.2
28/12:10am 21.0 21.8 15.9 72 3.1 SSE 6 9 3 5 - - 0.2
28/12:00am 21.3 22.1 15.9 71 3.3 SE 6 9 3 5 - - 0.2
 
Date/Time
EDT
Temp
°C
App
Temp
°C
Dew
Point
°C
Rel
Hum
%
Delta-T
°C
Wind Press
QNH
hPa
Press
MSL
hPa
Rain since
9am
mm
Dir  Spd
km/h
Gust
km/h
Spd
kts
Gust
kts
27/11:50pm 21.3 22.1 15.9 71 3.3 SSE 6 7 3 4 - - 0.2
27/11:40pm 20.9 22.2 16.1 74 2.9 SE 4 7 2 4 - - 0.2
27/11:30pm 20.6 21.6 16.3 76 2.6 SSE 6 13 3 7 - - 0.2
27/11:20pm 20.8 21.8 16.3 75 2.8 SSE 6 7 3 4 - - 0.2
27/11:10pm 21.1 22.2 16.5 75 2.8 SSE 6 7 3 4 - - 0.2
27/11:00pm 20.9 22.2 16.1 74 2.9 SE 4 6 2 3 - - 0.2
27/10:50pm 20.7 21.7 16.4 76 2.6 SSE 6 9 3 5 - - 0.2
27/10:40pm 20.9 21.9 16.4 75 2.8 SSE 6 7 3 4 - - 0.2
27/10:30pm 20.7 21.7 16.4 76 2.6 S 6 6 3 3 - - 0.2
27/10:20pm 20.3 21.4 16.7 80 2.2 SSE 6 9 3 5 - - 0.2
27/10:10pm 20.6 21.8 16.8 79 2.3 S 6 9 3 5 - - 0.2
27/10:00pm 20.8 22.0 16.8 78 2.5 SSE 6 6 3 3 - - 0.2
27/09:50pm 20.9 21.8 16.6 76 2.6 S 7 11 4 6 - - 0.2
27/09:40pm 21.1 22.5 16.5 75 2.8 SSE 4 6 2 3 - - 0.2
27/09:30pm 21.2 22.3 16.6 75 2.8 SSE 6 7 3 4 - - 0.2
27/09:20pm 20.8 21.9 16.6 77 2.6 SSE 6 7 3 4 - - 0.2
27/09:10pm 20.4 21.5 16.5 78 2.4 SSE 6 7 3 4 - - 0.2
27/09:00pm 20.6 21.8 16.8 79 2.3 SSE 6 9 3 5 - - 0.2
27/08:50pm 20.7 22.2 16.6 77 2.5 SSE 4 7 2 4 - - 0.2
27/08:40pm 20.6 21.7 16.6 78 2.5 SSE 6 7 3 4 - - 0.2
27/08:30pm 20.5 21.5 16.4 77 2.5 SSE 6 9 3 5 - - 0.2
27/08:20pm 20.4 21.5 16.6 79 2.3 S 6 9 3 5 - - 0.2
27/08:10pm 20.4 21.8 16.5 78 2.4 S 4 7 2 4 - - 0.2
27/08:00pm 20.2 21.2 16.3 78 2.4 S 6 7 3 4 - - 0.2
27/07:50pm 20.1 21.2 16.5 80 2.2 SSE 6 7 3 4 - - 0.2
27/07:40pm 20.2 21.2 16.3 78 2.4 S 6 9 3 5 - - 0.2
27/07:30pm 20.2 21.6 16.5 79 2.3 SSE 4 6 2 3 - - 0.2
27/07:20pm 20.3 21.4 16.6 79 2.3 SSE 6 7 3 4 - - 0.2
27/07:10pm 20.6 22.1 16.6 78 2.5 SSE 4 7 2 4 - - 0.2
27/07:00pm 20.7 22.2 16.7 78 2.5 SSE 4 9 2 5 - - 0.2
27/06:50pm 20.3 21.7 16.4 78 2.4 SSE 4 4 2 2 - - 0.2
27/06:40pm 19.9 21.2 16.2 79 2.3 SSE 4 6 2 3 - - 0.2
27/06:30pm 19.6 20.9 16.2 81 2.1 S 4 6 2 3 - - 0.2
27/06:20pm 19.4 20.7 16.1 81 2.0 SSE 4 6 2 3 - - 0.2
27/06:10pm 19.4 20.7 16.1 81 2.0 SSE 4 6 2 3 - - 0.2
27/06:00pm 19.3 20.2 16.1 82 1.9 S 6 7 3 4 - - 0.2
27/05:50pm 19.3 20.6 16.2 82 1.9 S 4 6 2 3 - - 0.2
27/05:40pm 19.2 20.6 16.3 83 1.8 SSE 4 7 2 4 - - 0.2
27/05:30pm 19.2 20.6 16.3 83 1.8 S 4 7 2 4 - - 0.2
27/05:20pm 19.2 20.2 16.3 83 1.8 S 6 7 3 4 - - 0.2
27/05:10pm 19.3 20.3 16.4 83 1.8 SSE 6 9 3 5 - - 0.2
27/05:00pm 19.3 20.4 16.5 84 1.7 SSE 6 9 3 5 - - 0.2
27/04:50pm 19.4 20.5 16.6 84 1.7 S 6 9 3 5 - - 0.2
27/04:40pm 19.4 20.5 16.6 84 1.7 SSE 6 9 3 5 - - 0.2
27/04:30pm 19.5 20.5 16.8 84 1.7 S 7 9 4 5 - - 0.2
27/04:20pm 19.7 21.0 17.0 84 1.7 SSE 6 9 3 5 - - 0.2
27/04:10pm 19.9 21.3 17.3 85 1.6 S 6 9 3 5 - - 0.2
27/04:00pm 20.1 21.9 17.5 85 1.6 SSE 4 6 2 3 - - 0.2
27/03:50pm 20.2 21.7 17.6 85 1.6 SSE 6 7 3 4 - - 0.2
27/03:40pm 20.3 22.0 18.0 87 1.4 S 6 9 3 5 - - 0.2
27/03:30pm 20.4 22.5 18.1 87 1.4 SSE 4 9 2 5 - - 0.2
27/03:20pm 20.6 22.8 18.3 87 1.5 SSE 4 6 2 3 - - 0.2
27/03:10pm 20.7 22.6 18.5 87 1.4 SSE 6 9 3 5 - - 0.2
27/03:00pm 20.9 23.3 18.7 87 1.4 S 4 6 2 3 - - 0.2
27/02:50pm 21.0 23.4 18.9 88 1.3 SSE 4 6 2 3 - - 0.2
27/02:40pm 21.1 23.2 19.0 88 1.3 SSE 6 7 3 4 - - 0.2
27/02:30pm 21.2 23.4 19.1 88 1.3 SSE 6 11 3 6 - - 0.2
27/02:20pm 21.3 23.5 19.2 88 1.3 SSE 6 7 3 4 - - 0.2
27/02:10pm 21.3 24.0 19.4 89 1.2 S 4 9 2 5 - - 0.2
27/02:00pm 21.3 24.0 19.5 89 1.2 SSE 4 7 2 4 - - 0.2
27/01:50pm 21.3 24.4 19.6 90 1.1 SSE 2 6 1 3 - - 0.2
27/01:40pm 21.2 24.4 19.7 91 1.0 SE 2 4 1 2 - - 0.2
27/01:30pm 21.2 24.4 19.7 91 1.0 SSE 2 6 1 3 - - 0.2
27/01:20pm 21.3 24.5 19.7 91 1.0 SE 2 4 1 2 - - 0.2
27/01:10pm 21.3 24.5 19.7 91 1.0 SE 2 4 1 2 - - 0.2
27/01:00pm 21.4 24.6 19.7 90 1.1 SSE 2 2 1 1 - - 0.2
27/12:50pm 21.5 24.7 19.7 89 1.2 SE 2 6 1 3 - - 0.2
27/12:40pm 21.5 24.7 19.7 89 1.2 SSE 2 4 1 2 - - 0.2
27/12:30pm 21.5 24.6 19.6 89 1.2 SE 2 4 1 2 - - 0.2
27/12:20pm 21.5 24.7 19.7 89 1.2 SSE 2 4 1 2 - - 0.2
27/12:10pm 21.5 24.7 19.8 90 1.1 SE 2 4 1 2 - - 0.2
27/12:00pm 21.4 24.7 20.0 92 0.9 SE 2 2 1 1 - - 0.2
27/11:50am 21.4 24.7 19.9 91 1.0 SE 2 4 1 2 - - 0.2
27/11:40am 21.4 24.7 20.0 92 0.9 SE 2 2 1 1 - - 0.2
27/11:30am 21.5 24.8 20.0 91 1.0 SE 2 4 1 2 - - 0.2
27/11:20am 21.6 24.6 20.1 91 1.0 S 4 6 2 3 - - 0.2
27/11:10am 21.8 24.9 20.2 91 1.0 SE 4 4 2 2 - - 0.2
27/11:00am 21.9 24.5 20.1 89 1.2 SSE 6 9 3 5 - - 0.2
27/10:50am 21.9 24.8 19.9 88 1.3 SSE 4 6 2 3 - - 0.2
27/10:40am 21.7 25.0 19.9 89 1.2 SSE 2 4 1 2 - - 0.2
27/10:30am 21.6 24.9 20.0 91 1.0 SE 2 2 1 1 - - 0.2
27/10:20am 21.5 24.6 20.2 92 0.8 SE 4 4 2 2 - - 0.2
27/10:10am 21.6 24.8 20.4 93 0.8 SE 4 6 2 3 - - 0.2
27/10:00am 21.5 24.9 20.2 92 0.8 SE 2 7 1 4 - - 1.0
27/09:50am 21.5 24.8 20.0 91 1.0 SSE 2 2 1 1 - - 1.0
27/09:40am 21.7 24.8 20.3 92 0.9 SE 4 4 2 2 - - 1.0
27/09:30am 22.1 25.3 20.4 90 1.1 E 4 6 2 3 - - 1.0
27/09:20am 22.7 26.3 20.6 88 1.4 SE 2 4 1 2 - - 0.8
27/09:10am 23.2 25.9 19.5 80 2.4 S 4 9 2 5 - - 0.4
27/09:00am 23.4 26.5 19.5 79 2.5 SSE 2 4 1 2 - - 0.4
27/08:50am 23.5 26.0 19.0 76 2.9 SSE 4 7 2 4 - - 0.4
27/08:40am 23.3 25.6 18.6 75 3.0 SSE 4 7 2 4 - - 0.4
27/08:30am 23.1 25.5 18.9 77 2.7 SSE 4 6 2 3 - - 0.4
27/08:20am 23.1 25.6 19.0 78 2.6 SE 4 6 2 3 - - 0.4
27/08:10am 23.0 25.3 19.4 80 2.3 SE 6 7 3 4 - - 0.4
27/08:00am 23.4 26.3 19.8 80 2.3 ESE 4 6 2 3 - - 0.2
27/07:50am 24.5 28.2 20.8 80 2.5 E 2 4 1 2 - - 0.2
27/07:40am 25.6 27.4 18.2 63 4.7 SW 6 9 3 5 - - 0.2
27/07:30am 26.8 28.1 17.5 56 5.9 SW 7 9 4 5 - - 0.0
27/07:20am 27.7 28.2 16.6 50 7.0 SW 9 11 5 6 - - 0.0
27/07:10am 28.9 29.6 16.2 46 8.0 SW 7 9 4 5 - - 0.0
27/07:00am 29.5 29.2 14.5 40 9.2 WSW 9 13 5 7 - - 0.0
27/06:50am 29.9 30.4 15.5 41 9.0 SW 7 11 4 6 - - 0.0
27/06:40am 30.4 31.3 15.1 39 9.5 WSW 4 6 2 3 - - 0.0
27/06:30am 30.7 30.8 13.8 35 10.3 WSW 6 9 3 5 - - 0.0
27/06:20am 30.6 30.7 13.8 35 10.3 WSW 6 7 3 4 - - 0.0
27/06:10am 30.7 30.7 13.5 35 10.5 WSW 6 7 3 4 - - 0.0
27/06:00am 30.7 30.7 13.7 35 10.4 WSW 6 7 3 4 - - 0.0
27/05:50am 30.4 31.0 14.2 37 10.0 SW 4 6 2 3 - - 0.0
27/05:40am 30.2 31.0 14.8 39 9.5 SW 4 4 2 2 - - 0.0
27/05:30am 29.9 30.5 15.3 41 9.1 SSW 6 7 3 4 - - 0.0
27/05:20am 29.7 30.2 15.6 42 8.8 S 7 9 4 5 - - 0.0
27/05:10am 30.1 30.7 15.4 41 9.2 SSW 6 7 3 4 - - 0.0
27/05:00am 30.4 31.8 14.4 37 9.9 CALM 0 4 0 2 - - 0.0
27/04:50am 30.5 32.1 15.0 39 9.6 CALM 0 2 0 1 - - 0.0
27/04:40am 30.6 31.5 13.9 36 10.2 SSE 2 2 1 1 - - 0.0
27/04:30am 30.9 32.3 15.5 39 9.7 ESE 2 2 1 1 - - 0.0
27/04:20am 31.3 32.5 14.8 36 10.3 E 2 2 1 1 - - 0.0
27/04:10am 31.5 33.2 15.3 37 10.2 CALM 0 2 0 1 - - 0.0
27/04:00am 31.8 32.6 13.6 33 11.1 E 2 4 1 2 - - 0.0
27/03:50am 31.8 31.8 12.5 30 11.6 NNE 4 6 2 3 - - 0.0
27/03:40am 31.9 31.6 12.7 31 11.6 N 6 7 3 4 - - 0.0
27/03:30am 32.7 31.9 11.8 28 12.5 NW 7 11 4 6 - - 0.0
27/03:20am 33.3 33.1 13.1 29 12.3 NW 6 7 3 4 - - 0.0
27/03:10am 33.8 33.4 12.4 27 13.0 WNW 6 7 3 4 - - 0.0
27/03:00am 34.4 34.0 12.3 26 13.4 W 6 7 3 4 - - 0.0
27/02:50am 34.9 34.4 12.1 25 13.8 NW 6 7 3 4 - - 0.0
27/02:40am 36.0 35.5 12.2 23 14.5 WNW 6 7 3 4 - - 0.0
27/02:30am 37.1 36.3 11.7 21 15.4 W 7 11 4 6 - - 0.0
27/02:20am 37.2 36.6 12.4 22 15.2 NW 7 11 4 6 - - 0.0
27/02:10am 37.1 35.8 11.4 21 15.5 WNW 9 11 5 6 - - 0.0
27/02:00am 36.9 36.4 12.7 23 14.9 WNW 7 11 4 6 - - 0.0
27/01:50am 36.3 34.7 11.4 22 15.0 W 11 15 6 8 - - 0.0
27/01:40am 35.5 33.8 11.1 22 14.6 W 11 15 6 8 - - 0.0
27/01:30am 35.3 34.5 11.7 24 14.2 W 7 11 4 6 - - 0.0
27/01:20am 36.5 35.4 12.1 23 14.9 WNW 9 11 5 6 - - 0.0
27/01:10am 36.8 35.8 12.3 23 15.0 W 9 13 5 7 - - 0.0
27/01:00am 35.9 35.4 12.5 24 14.3 WNW 7 13 4 7 - - 0.0
27/12:50am 35.5 34.3 11.7 23 14.4 WNW 9 11 5 6 - - 0.0
27/12:40am 35.6 34.6 12.4 24 14.2 WNW 9 13 5 7 - - 0.0
27/12:30am 35.5 34.7 11.6 23 14.4 NW 7 9 4 5 - - 0.0
27/12:20am 35.5 34.2 11.4 23 14.5 NNW 9 13 5 7 - - 0.0
27/12:10am 36.1 35.3 11.8 23 14.7 WNW 7 11 4 6 - - 0.0
27/12:00am 36.6 35.8 12.8 24 14.7 WNW 9 13 5 7 - - 0.0
 
Date/Time
EDT
Temp
°C
App
Temp
°C
Dew
Point
°C
Rel
Hum
%
Delta-T
°C
Wind Press
QNH
hPa
Press
MSL
hPa
Rain since
9am
mm
Dir  Spd
km/h
Gust
km/h
Spd
kts
Gust
kts
26/11:50pm 37.2 37.0 13.6 24 14.7 NW 7 11 4 6 - - 0.0
26/11:40pm 35.5 35.0 12.5 25 14.0 WNW 7 9 4 5 - - 0.0
26/11:30pm 35.3 35.1 13.1 26 13.7 W 6 9 3 5 - - 0.0
26/11:20pm 35.2 35.0 13.6 27 13.4 NW 7 9 4 5 - - 0.0
26/11:10pm 35.0 35.3 14.9 30 12.7 NW 7 9 4 5 - - 0.0
26/11:00pm 35.0 34.3 13.2 27 13.4 NNW 9 15 5 8 - - 0.0
26/10:50pm 35.0 34.8 13.6 27 13.3 WNW 7 9 4 5 - - 0.0
26/10:40pm 34.8 34.4 12.3 25 13.7 WNW 6 7 3 4 - - 0.0
26/10:30pm 34.3 33.5 11.8 25 13.5 WNW 7 9 4 5 - - 0.0
26/10:20pm 33.1 32.9 13.7 31 11.9 NNW 7 11 4 6 - - 0.0
26/10:10pm 33.3 32.5 12.8 28 12.5 NW 9 13 5 7 - - 0.0
26/10:00pm 34.4 34.3 14.9 31 12.3 NW 9 11 5 6 - - 0.0
26/09:50pm 33.9 32.9 12.3 27 13.1 NNW 9 13 5 7 - - 0.0
26/09:40pm 33.4 32.9 12.8 28 12.5 NW 7 9 4 5 - - 0.0
26/09:30pm 33.0 33.0 14.3 32 11.6 NNW 7 9 4 5 - - 0.0
26/09:20pm 32.5 32.2 14.5 33 11.2 W 9 11 5 6 - - 0.0
26/09:10pm 32.3 32.7 14.7 34 11.0 WNW 6 7 3 4 - - 0.0
26/09:00pm 31.5 31.7 14.6 36 10.5 WNW 7 11 4 6 - - 0.0
26/08:50pm 31.1 31.9 15.9 40 9.6 WNW 6 7 3 4 - - 0.0
26/08:40pm 30.5 32.1 16.9 44 8.7 NNW 4 6 2 3 - - 0.0
26/08:30pm 30.1 31.7 17.0 45 8.4 N 4 6 2 3 - - 0.0
26/08:20pm 29.6 31.3 17.1 47 8.0 NNW 4 6 2 3 - - 0.0
26/08:10pm 29.3 31.3 17.9 50 7.4 N 4 6 2 3 - - 0.0
26/08:00pm 28.5 30.6 18.2 53 6.7 N 4 6 2 3 - - 0.0
26/07:50pm 28.3 30.7 18.0 53 6.6 NE 2 4 1 2 - - 0.0
26/07:40pm 27.4 29.6 17.5 54 6.3 WNW 2 4 1 2 - - 0.0
26/07:30pm 26.2 28.3 17.2 57 5.7 WSW 2 4 1 2 - - 0.0
26/07:20pm 25.3 27.3 17.0 60 5.2 SW 2 4 1 2 - - 0.0
26/07:10pm 23.7 25.8 17.2 67 4.1 SW 2 2 1 1 - - 0.0
26/07:00pm 22.4 24.4 16.9 71 3.4 SW 2 4 1 2 - - 0.0
26/06:50pm 21.4 22.9 16.6 74 3.0 SSW 4 6 2 3 - - 0.0
26/06:40pm 20.6 21.9 16.2 76 2.7 SSW 4 6 2 3 - - 0.0
26/06:30pm 19.6 21.0 16.3 81 2.0 SSW 4 6 2 3 - - 0.0
26/06:20pm 18.7 19.4 16.0 84 1.6 S 7 9 4 5 - - 0.0
26/06:10pm 18.2 18.9 16.0 87 1.3 SSW 7 9 4 5 - - 0.0
26/06:00pm 17.7 18.0 15.9 89 1.1 SSW 9 11 5 6 - - 0.0
26/05:50pm 17.6 17.9 16.0 90 1.0 SSW 9 13 5 7 - - 0.0
26/05:40pm 17.6 18.3 16.0 90 1.0 SSW 7 11 4 6 - - 0.0
26/05:30pm 17.6 18.3 16.0 90 1.0 S 7 11 4 6 - - 0.0
26/05:20pm 17.6 18.3 16.0 90 1.0 SSW 7 9 4 5 - - 0.0
26/05:10pm 17.6 18.3 16.0 90 1.0 SSW 7 9 4 5 - - 0.0
26/05:00pm 17.7 18.4 16.0 90 1.0 S 7 9 4 5 - - 0.0
26/04:50pm 17.7 18.4 16.2 91 0.9 SSW 7 11 4 6 - - 0.0
26/04:40pm 17.8 18.1 16.1 90 1.0 SSW 9 11 5 6 - - 0.0
26/04:30pm 17.8 18.5 16.1 90 1.0 SSW 7 9 4 5 - - 0.0
26/04:20pm 17.9 18.8 16.2 90 1.0 SSW 6 7 3 4 - - 0.0
26/04:10pm 18.0 18.7 16.1 89 1.1 SSW 7 7 4 4 - - 0.0
26/04:00pm 18.0 18.9 16.1 89 1.1 SSW 6 7 3 4 - - 0.0
26/03:50pm 18.1 19.0 16.2 89 1.1 SSW 6 7 3 4 - - 0.0
26/03:40pm 18.2 19.1 16.2 88 1.2 SSW 6 7 3 4 - - 0.0
26/03:30pm 18.3 19.2 16.2 87 1.3 SSW 6 7 3 4 - - 0.0
26/03:20pm 18.4 19.1 16.2 87 1.3 SSW 7 9 4 5 - - 0.0
26/03:10pm 18.5 19.5 16.3 87 1.3 SSW 6 7 3 4 - - 0.0
26/03:00pm 18.5 19.5 16.3 87 1.3 SSW 6 7 3 4 - - 0.0
26/02:50pm 18.6 19.3 16.2 86 1.5 SSW 7 9 4 5 - - 0.0
26/02:40pm 18.7 19.6 16.2 85 1.5 SSW 6 7 3 4 - - 0.0
26/02:30pm 18.9 19.8 16.2 84 1.6 SSW 6 7 3 4 - - 0.0
26/02:20pm 18.9 19.8 16.2 84 1.6 SSW 6 6 3 3 - - 0.0
26/02:10pm 19.0 19.7 16.2 84 1.7 SSW 7 9 4 5 - - 0.0
26/02:00pm 19.1 19.8 16.2 83 1.8 SSW 7 9 4 5 - - 0.0
26/01:50pm 19.2 20.2 16.3 83 1.8 SSW 6 7 3 4 - - 0.0
26/01:40pm 19.3 20.2 16.2 82 1.9 SSW 6 7 3 4 - - 0.0
26/01:30pm 19.4 20.4 16.3 82 1.9 S 6 7 3 4 - - 0.0
26/01:20pm 19.5 20.3 16.3 82 1.9 SSW 7 9 4 5 - - 0.0
26/01:10pm 19.6 20.4 16.3 81 2.0 S 7 9 4 5 - - 0.0
26/01:00pm 19.6 20.3 16.2 81 2.1 SSW 7 11 4 6 - - 0.0
26/12:50pm 19.8 20.5 16.2 80 2.2 SSW 7 9 4 5 - - 0.0
26/12:40pm 19.9 20.6 16.2 79 2.3 SSW 7 9 4 5 - - 0.0
26/12:30pm 20.0 20.7 16.1 78 2.4 SSW 7 9 4 5 - - 0.0
26/12:20pm 20.1 20.8 16.2 78 2.4 SSW 7 9 4 5 - - 0.0
26/12:10pm 20.2 21.1 16.1 77 2.5 SSW 6 7 3 4 - - 0.0
26/12:00pm 20.3 21.3 16.3 78 2.4 SSW 6 7 3 4 - - 0.0
26/11:50am 20.3 21.1 16.4 78 2.4 SSW 7 9 4 5 - - 0.0
26/11:40am 20.5 21.4 16.5 78 2.5 SSW 7 9 4 5 - - 0.0
26/11:30am 20.7 21.8 16.5 77 2.6 SSW 6 6 3 3 - - 0.0
26/11:20am 20.8 22.2 16.3 75 2.8 SSW 4 6 2 3 - - 0.0
26/11:10am 20.9 21.8 16.2 74 2.9 S 6 7 3 4 - - 0.0
26/11:00am 21.0 21.9 16.2 74 2.9 S 6 6 3 3 - - 0.0
26/10:50am 21.2 22.1 16.0 72 3.2 S 6 7 3 4 - - 0.0
26/10:40am 21.4 22.3 16.0 71 3.3 SSW 6 7 3 4 - - 0.0
26/10:30am 21.6 22.5 16.1 71 3.4 S 6 6 3 3 - - 0.0
26/10:20am 21.8 22.7 16.2 70 3.4 S 6 6 3 3 - - 0.0
26/10:10am 21.9 23.3 16.3 70 3.4 SSW 4 4 2 2 - - 0.0
26/10:00am 21.7 23.4 16.1 70 3.4 S 2 4 1 2 - - 0.0
26/09:50am 21.7 23.7 16.1 70 3.4 CALM 0 0 0 0 - - 0.0
26/09:40am 21.9 23.9 16.0 69 3.6 CALM 0 0 0 0 - - 0.0
26/09:30am 22.1 24.1 15.9 68 3.8 CALM 0 2 0 1 - - 0.0
26/09:20am 22.2 24.1 15.7 66 4.0 CALM 0 2 0 1 - - 0.0
26/09:10am 22.2 24.0 15.6 66 4.0 CALM 0 2 0 1 - - 0.0
26/09:00am 22.3 24.1 15.4 65 4.2 CALM 0 2 0 1 - - 0.0
26/08:50am 22.3 23.6 15.2 64 4.3 E 2 4 1 2 - - 0.0
26/08:40am 22.5 23.7 15.0 62 4.5 E 2 2 1 1 - - 0.0
26/08:30am 22.8 24.1 15.1 62 4.7 E 2 2 1 1 - - 0.0
26/08:20am 23.1 24.3 14.8 59 5.0 E 2 2 1 1 - - 0.0
26/08:10am 23.5 24.6 14.7 57 5.3 E 2 2 1 1 - - 0.0
26/08:00am 23.9 24.9 14.4 55 5.7 ENE 2 2 1 1 - - 0.0
26/07:50am 24.3 25.6 14.0 52 6.2 CALM 0 2 0 1 - - 0.0
26/07:40am 24.7 25.5 13.8 50 6.5 E 2 4 1 2 - - 0.0
26/07:30am 25.2 25.9 13.5 48 7.0 ENE 2 4 1 2 - - 0.0
26/07:20am 25.7 26.2 12.7 44 7.7 ENE 2 2 1 1 - - 0.0
26/07:10am 26.4 26.5 11.5 39 8.6 ENE 2 2 1 1 - - 0.0
26/07:00am 27.2 26.9 10.1 34 9.7 E 2 4 1 2 - - 0.0
26/06:50am 28.0 27.5 9.5 31 10.4 ENE 2 4 1 2 - - 0.0
26/06:40am 29.0 28.3 8.7 28 11.4 NE 2 2 1 1 - - 0.0
26/06:30am 30.2 29.1 8.3 25 12.3 NE 4 4 2 2 - - 0.0
26/06:20am 31.2 30.5 10.1 27 12.2 NE 4 6 2 3 - - 0.0
26/06:10am 32.0 31.0 9.0 24 13.1 NNE 4 6 2 3 - - 0.0
26/06:00am 32.6 32.3 11.5 27 12.6 NE 4 7 2 4 - - 0.0
26/05:50am 33.2 32.7 10.6 25 13.3 NE 4 7 2 4 - - 0.0
26/05:40am 33.8 32.9 10.7 24 13.6 ENE 6 7 3 4 - - 0.0
26/05:30am 34.5 33.3 9.4 21 14.6 ENE 6 7 3 4 - - 0.0
26/05:20am 34.8 33.6 9.4 21 14.8 ENE 6 6 3 3 - - 0.0
26/05:10am 35.1 33.5 7.8 18 15.5 ENE 6 7 3 4 - - 0.0
26/05:00am 35.4 34.0 8.9 19 15.3 ENE 6 7 3 4 - - 0.0
26/04:50am 35.8 34.4 8.7 19 15.7 ENE 6 7 3 4 - - 0.0
26/04:40am 36.0 34.6 8.7 19 15.8 ENE 6 7 3 4 - - 0.0
26/04:30am 36.2 35.0 9.4 19 15.7 ENE 6 7 3 4 - - 0.0
26/04:20am 36.3 35.5 11.0 21 15.2 ENE 6 9 3 5 - - 0.0
26/04:10am 36.4 35.8 12.4 23 14.7 NE 7 9 4 5 - - 0.0
26/04:00am 36.7 36.1 12.3 23 14.9 NNE 7 9 4 5 - - 0.0
26/03:50am 37.2 36.4 11.7 21 15.5 NNE 7 11 4 6 - - 0.0
26/03:40am 37.7 36.5 9.4 18 16.7 NNE 6 7 3 4 - - 0.0
26/03:30am 37.7 36.2 7.0 15 17.4 NE 4 7 2 4 - - 0.0
26/03:20am 37.5 36.1 8.9 17 16.7 ENE 6 7 3 4 - - 0.0
26/03:10am 37.3 35.4 7.6 16 17.0 ENE 7 9 4 5 - - 0.0
26/03:00am 37.3 35.4 7.5 16 17.0 E 7 9 4 5 - - 0.0
26/02:50am 37.1 35.7 9.4 18 16.3 ENE 7 9 4 5 - - 0.0
26/02:40am 37.1 35.6 8.5 17 16.6 N 6 7 3 4 - - 0.0
26/02:30am 36.7 35.3 9.5 19 16.0 NNW 7 9 4 5 - - 0.0
26/02:20am 36.8 35.5 9.1 18 16.2 N 6 7 3 4 - - 0.0
26/02:10am 36.3 34.9 9.7 20 15.6 NNW 7 9 4 5 - - 0.0
26/02:00am 36.7 35.7 10.9 21 15.5 N 7 9 4 5 - - 0.0
26/01:50am 36.9 36.5 12.3 22 15.1 ENE 6 7 3 4 - - 0.0
26/01:40am 36.9 36.0 10.6 20 15.7 NE 6 9 3 5 - - 0.0
26/01:30am 36.7 35.8 10.7 20 15.5 NNE 6 7 3 4 - - 0.0
26/01:20am 36.7 36.7 13.5 25 14.4 NNE 6 7 3 4 - - 0.0
26/01:10am 36.6 36.1 12.1 23 14.9 NNE 6 7 3 4 - - 0.0
26/01:00am 35.9 35.9 13.5 26 13.9 N 6 11 3 6 - - 0.0
26/12:50am 35.6 34.3 9.8 20 15.1 NNW 7 7 4 4 - - 0.0
26/12:40am 35.3 34.2 10.1 21 14.8 NNE 6 7 3 4 - - 0.0
26/12:30am 34.6 33.6 11.0 23 14.0 N 7 13 4 7 - - 0.0
26/12:20am 35.2 35.6 14.8 29 12.9 N 6 7 3 4 - - 0.0
26/12:10am 34.6 34.9 14.6 30 12.5 NNE 6 9 3 5 - - 0.0
26/12:00am 34.4 35.1 15.6 32 12.0 N 6 7 3 4 - - 0.0
 
Date/Time
EDT
Temp
°C
App
Temp
°C
Dew
Point
°C
Rel
Hum
%
Delta-T
°C
Wind Press
QNH
hPa
Press
MSL
hPa
Rain since
9am
mm
Dir  Spd
km/h
Gust
km/h
Spd
kts
Gust
kts
25/11:50pm 34.3 35.3 16.4 34 11.5 NE 6 6 3 3 - - 0.0

Other formats

Comma delimited format used in spreadsheet applications
http://www.bom.gov.au/fwo/IDN60801/IDN60801.99129.axf

JavaScript Object Notation format (JSON) in row-major order
http://www.bom.gov.au/fwo/IDN60801/IDN60801.99129.json

Data quality

Most of these data are generated automatically and are frequently updated. Quality checks on data are not normally performed. It is possible for incorrect values to appear. Refer to information at About Latest Weather Observations and please check the disclaimer before using these data.